sensor_id;sensor_type;location;lat;lon;timestamp;pressure;altitude;pressure_sealevel;temperature;humidity
10310;BME280;5200;43.236;27.986;2023-06-10T00:02:20;99411.72;;;17.02;81.65
10310;BME280;5200;43.236;27.986;2023-06-10T00:04:47;99442.50;;;17.18;81.27
10310;BME280;5200;43.236;27.986;2023-06-10T00:07:18;99421.41;;;16.88;80.89
10310;BME280;5200;43.236;27.986;2023-06-10T00:09:45;99451.50;;;16.95;79.87
10310;BME280;5200;43.236;27.986;2023-06-10T00:12:12;99465.25;;;16.99;80.17
10310;BME280;5200;43.236;27.986;2023-06-10T00:14:40;99442.44;;;16.83;79.83
10310;BME280;5200;43.236;27.986;2023-06-10T00:17:07;99424.88;;;16.67;79.14
10310;BME280;5200;43.236;27.986;2023-06-10T00:19:35;99456.53;;;16.83;79.05
10310;BME280;5200;43.236;27.986;2023-06-10T00:22:07;99452.72;;;16.71;78.85
10310;BME280;5200;43.236;27.986;2023-06-10T00:24:35;99454.81;;;16.76;78.63
10310;BME280;5200;43.236;27.986;2023-06-10T00:27:02;99426.31;;;16.63;79.07
10310;BME280;5200;43.236;27.986;2023-06-10T00:29:32;99446.03;;;16.97;80.33
10310;BME280;5200;43.236;27.986;2023-06-10T00:31:59;99426.53;;;17.18;80.49
10310;BME280;5200;43.236;27.986;2023-06-10T00:34:26;99428.13;;;17.47;77.49
10310;BME280;5200;43.236;27.986;2023-06-10T00:36:53;99440.56;;;17.74;73.78
10310;BME280;5200;43.236;27.986;2023-06-10T00:39:20;99426.41;;;17.67;72.15
10310;BME280;5200;43.236;27.986;2023-06-10T00:41:49;99458.19;;;17.75;71.73
10310;BME280;5200;43.236;27.986;2023-06-10T00:44:19;99441.13;;;17.63;72.78
10310;BME280;5200;43.236;27.986;2023-06-10T00:46:55;99467.38;;;17.80;74.43
10310;BME280;5200;43.236;27.986;2023-06-10T00:49:23;99431.72;;;17.67;74.03
10310;BME280;5200;43.236;27.986;2023-06-10T00:51:50;99449.00;;;17.85;75.07
10310;BME280;5200;43.236;27.986;2023-06-10T00:54:19;99451.31;;;17.88;71.23
10310;BME280;5200;43.236;27.986;2023-06-10T00:56:48;99446.91;;;17.80;70.86
10310;BME280;5200;43.236;27.986;2023-06-10T00:59:18;99438.72;;;17.75;69.92
10310;BME280;5200;43.236;27.986;2023-06-10T01:01:48;99435.00;;;17.69;69.80
10310;BME280;5200;43.236;27.986;2023-06-10T01:04:17;99429.25;;;17.59;69.14
10310;BME280;5200;43.236;27.986;2023-06-10T01:06:51;99435.56;;;17.58;69.58
10310;BME280;5200;43.236;27.986;2023-06-10T01:09:27;99440.25;;;17.56;70.94
10310;BME280;5200;43.236;27.986;2023-06-10T01:12:05;99447.66;;;17.61;69.48
10310;BME280;5200;43.236;27.986;2023-06-10T01:14:35;99437.28;;;17.38;68.91
10310;BME280;5200;43.236;27.986;2023-06-10T01:17:07;99441.38;;;17.33;70.11
10310;BME280;5200;43.236;27.986;2023-06-10T01:19:35;99433.53;;;17.25;71.25
10310;BME280;5200;43.236;27.986;2023-06-10T01:22:04;99464.50;;;17.40;73.35
10310;BME280;5200;43.236;27.986;2023-06-10T01:24:31;99423.31;;;17.22;73.79
10310;BME280;5200;43.236;27.986;2023-06-10T01:27:01;99468.88;;;17.47;74.91
10310;BME280;5200;43.236;27.986;2023-06-10T01:29:37;99430.66;;;17.20;75.09
10310;BME280;5200;43.236;27.986;2023-06-10T01:32:08;99460.16;;;17.32;74.82
10310;BME280;5200;43.236;27.986;2023-06-10T01:34:39;99461.50;;;17.21;75.33
10310;BME280;5200;43.236;27.986;2023-06-10T01:37:11;99449.44;;;17.19;76.26
10310;BME280;5200;43.236;27.986;2023-06-10T01:39:40;99444.38;;;17.24;75.08
10310;BME280;5200;43.236;27.986;2023-06-10T01:42:08;99428.00;;;17.20;75.04
10310;BME280;5200;43.236;27.986;2023-06-10T01:44:40;99408.91;;;17.10;75.95
10310;BME280;5200;43.236;27.986;2023-06-10T01:47:07;99410.53;;;17.11;74.80
10310;BME280;5200;43.236;27.986;2023-06-10T01:49:34;99413.84;;;17.13;74.44
10310;BME280;5200;43.236;27.986;2023-06-10T01:52:01;99413.44;;;17.16;75.17
10310;BME280;5200;43.236;27.986;2023-06-10T01:54:29;99414.25;;;17.17;75.59
10310;BME280;5200;43.236;27.986;2023-06-10T01:56:56;99435.88;;;17.42;77.80
10310;BME280;5200;43.236;27.986;2023-06-10T01:59:23;99420.13;;;17.40;77.57
10310;BME280;5200;43.236;27.986;2023-06-10T02:01:50;99414.38;;;17.37;78.40
10310;BME280;5200;43.236;27.986;2023-06-10T02:04:18;99435.75;;;17.50;79.11
10310;BME280;5200;43.236;27.986;2023-06-10T02:06:45;99424.66;;;17.46;78.74
10310;BME280;5200;43.236;27.986;2023-06-10T02:09:12;99410.31;;;17.41;79.56
10310;BME280;5200;43.236;27.986;2023-06-10T02:11:40;99419.16;;;17.48;78.70
10310;BME280;5200;43.236;27.986;2023-06-10T02:14:07;99402.13;;;17.36;78.33
10310;BME280;5200;43.236;27.986;2023-06-10T02:16:34;99430.84;;;17.53;79.88
10310;BME280;5200;43.236;27.986;2023-06-10T02:19:02;99424.31;;;17.56;80.32
10310;BME280;5200;43.236;27.986;2023-06-10T02:21:32;99436.00;;;17.68;80.08
10310;BME280;5200;43.236;27.986;2023-06-10T02:23:59;99423.53;;;17.62;80.45
10310;BME280;5200;43.236;27.986;2023-06-10T02:26:26;99446.47;;;17.70;80.49
10310;BME280;5200;43.236;27.986;2023-06-10T02:28:56;99421.78;;;17.41;80.00
10310;BME280;5200;43.236;27.986;2023-06-10T02:31:23;99416.59;;;17.26;80.53
10310;BME280;5200;43.236;27.986;2023-06-10T02:33:54;99425.78;;;17.30;80.88
10310;BME280;5200;43.236;27.986;2023-06-10T02:36:23;99432.41;;;17.41;79.95
10310;BME280;5200;43.236;27.986;2023-06-10T02:38:53;99417.72;;;17.45;77.20
10310;BME280;5200;43.236;27.986;2023-06-10T02:41:21;99438.38;;;17.85;75.48
10310;BME280;5200;43.236;27.986;2023-06-10T02:43:55;99426.59;;;18.14;73.24
10310;BME280;5200;43.236;27.986;2023-06-10T02:46:22;99445.91;;;18.36;73.98
10310;BME280;5200;43.236;27.986;2023-06-10T02:48:49;99427.09;;;18.44;75.43
10310;BME280;5200;43.236;27.986;2023-06-10T02:51:17;99410.50;;;18.95;73.53
10310;BME280;5200;43.236;27.986;2023-06-10T02:53:44;99446.47;;;19.78;70.61
10310;BME280;5200;43.236;27.986;2023-06-10T02:56:16;99416.69;;;20.19;66.29
10310;BME280;5200;43.236;27.986;2023-06-10T02:58:43;99437.06;;;21.02;64.13
10310;BME280;5200;43.236;27.986;2023-06-10T03:01:11;99434.75;;;21.86;61.05
10310;BME280;5200;43.236;27.986;2023-06-10T03:03:41;99441.00;;;22.71;57.34
10310;BME280;5200;43.236;27.986;2023-06-10T03:06:10;99440.22;;;23.64;52.78
10310;BME280;5200;43.236;27.986;2023-06-10T03:08:42;99414.72;;;24.36;49.34
10310;BME280;5200;43.236;27.986;2023-06-10T03:11:12;99418.00;;;25.23;46.63
10310;BME280;5200;43.236;27.986;2023-06-10T03:13:41;99437.66;;;26.06;44.28
10310;BME280;5200;43.236;27.986;2023-06-10T03:16:11;99433.03;;;26.88;41.90
10310;BME280;5200;43.236;27.986;2023-06-10T03:18:38;99416.09;;;27.40;39.85
10310;BME280;5200;43.236;27.986;2023-06-10T03:21:06;99430.41;;;28.19;37.90
10310;BME280;5200;43.236;27.986;2023-06-10T03:23:35;99419.09;;;28.33;37.55
10310;BME280;5200;43.236;27.986;2023-06-10T03:26:04;99422.94;;;28.62;37.88
10310;BME280;5200;43.236;27.986;2023-06-10T03:28:31;99423.97;;;29.28;35.38
10310;BME280;5200;43.236;27.986;2023-06-10T03:31:03;99402.34;;;29.83;34.03
10310;BME280;5200;43.236;27.986;2023-06-10T03:33:32;99416.31;;;30.45;33.09
10310;BME280;5200;43.236;27.986;2023-06-10T03:35:59;99390.69;;;30.61;32.01
10310;BME280;5200;43.236;27.986;2023-06-10T03:38:27;99403.97;;;30.63;31.65
10310;BME280;5200;43.236;27.986;2023-06-10T03:40:53;99392.88;;;30.59;31.60
10310;BME280;5200;43.236;27.986;2023-06-10T03:43:32;99405.72;;;30.77;31.14
10310;BME280;5200;43.236;27.986;2023-06-10T03:46:00;99393.78;;;30.79;30.58
10310;BME280;5200;43.236;27.986;2023-06-10T03:48:27;99394.56;;;30.84;30.88
10310;BME280;5200;43.236;27.986;2023-06-10T03:50:55;99389.22;;;31.03;31.05
10310;BME280;5200;43.236;27.986;2023-06-10T03:53:23;99403.44;;;31.19;30.49
10310;BME280;5200;43.236;27.986;2023-06-10T03:55:50;99388.47;;;31.22;30.84
10310;BME280;5200;43.236;27.986;2023-06-10T03:58:17;99387.44;;;31.42;30.36
10310;BME280;5200;43.236;27.986;2023-06-10T04:00:47;99395.97;;;31.78;29.90
10310;BME280;5200;43.236;27.986;2023-06-10T04:03:16;99377.56;;;31.70;29.72
10310;BME280;5200;43.236;27.986;2023-06-10T04:05:43;99400.38;;;31.93;29.48
10310;BME280;5200;43.236;27.986;2023-06-10T04:08:11;99395.44;;;31.95;29.73
10310;BME280;5200;43.236;27.986;2023-06-10T04:10:38;99378.19;;;32.05;29.56
10310;BME280;5200;43.236;27.986;2023-06-10T04:13:06;99402.97;;;32.22;28.79
10310;BME280;5200;43.236;27.986;2023-06-10T04:15:33;99391.19;;;32.08;29.11
10310;BME280;5200;43.236;27.986;2023-06-10T04:17:59;99385.63;;;31.99;29.72
10310;BME280;5200;43.236;27.986;2023-06-10T04:20:27;99395.47;;;32.14;29.06
10310;BME280;5200;43.236;27.986;2023-06-10T04:23:00;99403.03;;;32.17;28.81
10310;BME280;5200;43.236;27.986;2023-06-10T04:25:28;99378.69;;;31.88;29.13
10310;BME280;5200;43.236;27.986;2023-06-10T04:27:55;99393.34;;;32.11;29.12
10310;BME280;5200;43.236;27.986;2023-06-10T04:30:22;99398.44;;;32.31;28.51
10310;BME280;5200;43.236;27.986;2023-06-10T04:32:49;99404.25;;;32.43;28.98
10310;BME280;5200;43.236;27.986;2023-06-10T04:35:22;99375.16;;;32.25;27.93
10310;BME280;5200;43.236;27.986;2023-06-10T04:37:49;99378.31;;;31.94;27.97
10310;BME280;5200;43.236;27.986;2023-06-10T04:40:18;99385.72;;;31.70;28.06
10310;BME280;5200;43.236;27.986;2023-06-10T04:42:46;99401.88;;;31.37;28.57
10310;BME280;5200;43.236;27.986;2023-06-10T04:45:13;99412.81;;;31.32;28.94
10310;BME280;5200;43.236;27.986;2023-06-10T04:47:49;99384.50;;;31.14;29.16
10310;BME280;5200;43.236;27.986;2023-06-10T04:50:19;99388.94;;;31.29;29.14
10310;BME280;5200;43.236;27.986;2023-06-10T04:52:49;99380.41;;;31.16;29.24
10310;BME280;5200;43.236;27.986;2023-06-10T04:58:09;99404.19;;;30.66;30.08
10310;BME280;5200;43.236;27.986;2023-06-10T05:00:36;99416.00;;;30.81;30.04
10310;BME280;5200;43.236;27.986;2023-06-10T05:03:03;99412.72;;;30.89;29.91
10310;BME280;5200;43.236;27.986;2023-06-10T05:05:30;99398.47;;;31.02;29.79
10310;BME280;5200;43.236;27.986;2023-06-10T05:07:57;99403.72;;;31.17;29.26
10310;BME280;5200;43.236;27.986;2023-06-10T05:10:26;99392.56;;;30.95;28.84
10310;BME280;5200;43.236;27.986;2023-06-10T05:12:58;99399.72;;;30.81;28.94
10310;BME280;5200;43.236;27.986;2023-06-10T05:15:27;99399.50;;;30.77;29.17
10310;BME280;5200;43.236;27.986;2023-06-10T05:17:57;99394.19;;;30.67;28.88
10310;BME280;5200;43.236;27.986;2023-06-10T05:20:27;99413.31;;;30.86;29.37
10310;BME280;5200;43.236;27.986;2023-06-10T05:23:04;99412.19;;;30.87;29.85
10310;BME280;5200;43.236;27.986;2023-06-10T05:25:32;99382.44;;;30.71;30.59
10310;BME280;5200;43.236;27.986;2023-06-10T05:28:00;99413.31;;;30.86;30.32
10310;BME280;5200;43.236;27.986;2023-06-10T05:30:30;99415.75;;;30.53;30.73
10310;BME280;5200;43.236;27.986;2023-06-10T05:32:57;99388.50;;;30.24;31.43
10310;BME280;5200;43.236;27.986;2023-06-10T05:35:26;99411.41;;;30.07;31.66
10310;BME280;5200;43.236;27.986;2023-06-10T05:37:53;99411.13;;;30.09;32.34
10310;BME280;5200;43.236;27.986;2023-06-10T05:40:20;99417.00;;;30.21;32.21
10310;BME280;5200;43.236;27.986;2023-06-10T05:42:47;99404.81;;;30.19;31.86
10310;BME280;5200;43.236;27.986;2023-06-10T05:45:14;99405.59;;;30.29;32.71
10310;BME280;5200;43.236;27.986;2023-06-10T05:47:43;99384.72;;;30.59;32.17
10310;BME280;5200;43.236;27.986;2023-06-10T05:50:10;99387.38;;;30.64;32.33
10310;BME280;5200;43.236;27.986;2023-06-10T05:52:37;99386.31;;;30.94;31.08
10310;BME280;5200;43.236;27.986;2023-06-10T05:55:06;99381.19;;;31.17;30.72
10310;BME280;5200;43.236;27.986;2023-06-10T05:57:33;99378.53;;;30.83;34.22
10310;BME280;5200;43.236;27.986;2023-06-10T06:00:35;99366.72;;;30.39;35.11
10310;BME280;5200;43.236;27.986;2023-06-10T06:03:07;99401.91;;;30.10;36.07
10310;BME280;5200;43.236;27.986;2023-06-10T06:05:41;99397.22;;;29.76;37.84
10310;BME280;5200;43.236;27.986;2023-06-10T06:08:09;99390.19;;;29.65;38.58
10310;BME280;5200;43.236;27.986;2023-06-10T06:10:36;99393.91;;;29.89;38.04
10310;BME280;5200;43.236;27.986;2023-06-10T06:13:03;99396.53;;;30.00;37.32
10310;BME280;5200;43.236;27.986;2023-06-10T06:15:33;99372.09;;;30.05;34.13
10310;BME280;5200;43.236;27.986;2023-06-10T06:18:13;99390.47;;;30.18;32.05
10310;BME280;5200;43.236;27.986;2023-06-10T06:20:53;99394.47;;;29.81;37.60
10310;BME280;5200;43.236;27.986;2023-06-10T06:23:21;99359.75;;;29.18;39.07
10310;BME280;5200;43.236;27.986;2023-06-10T06:25:49;99373.59;;;29.17;38.98
10310;BME280;5200;43.236;27.986;2023-06-10T06:28:17;99358.94;;;29.28;38.44
10310;BME280;5200;43.236;27.986;2023-06-10T06:30:44;99365.25;;;29.63;38.83
10310;BME280;5200;43.236;27.986;2023-06-10T06:33:18;99367.44;;;29.71;37.95
10310;BME280;5200;43.236;27.986;2023-06-10T06:35:45;99382.72;;;30.01;37.33
10310;BME280;5200;43.236;27.986;2023-06-10T06:38:15;99370.31;;;29.90;37.35
10310;BME280;5200;43.236;27.986;2023-06-10T06:40:42;99352.00;;;30.11;37.31
10310;BME280;5200;43.236;27.986;2023-06-10T06:43:09;99357.44;;;30.45;37.37
10310;BME280;5200;43.236;27.986;2023-06-10T06:45:36;99356.81;;;30.53;37.00
10310;BME280;5200;43.236;27.986;2023-06-10T06:48:03;99372.84;;;30.50;37.25
10310;BME280;5200;43.236;27.986;2023-06-10T06:50:31;99385.31;;;30.56;37.07
10310;BME280;5200;43.236;27.986;2023-06-10T06:53:01;99374.00;;;30.44;36.97
10310;BME280;5200;43.236;27.986;2023-06-10T06:55:28;99360.50;;;30.39;36.90
10310;BME280;5200;43.236;27.986;2023-06-10T06:57:54;99370.03;;;30.31;36.44
10310;BME280;5200;43.236;27.986;2023-06-10T07:00:22;99368.22;;;30.16;35.76
10310;BME280;5200;43.236;27.986;2023-06-10T07:02:49;99345.78;;;30.05;35.99
10310;BME280;5200;43.236;27.986;2023-06-10T07:05:16;99353.66;;;30.07;35.81
10310;BME280;5200;43.236;27.986;2023-06-10T07:07:46;99343.25;;;29.80;35.46
10310;BME280;5200;43.236;27.986;2023-06-10T07:10:20;99352.25;;;29.75;35.91
10310;BME280;5200;43.236;27.986;2023-06-10T07:12:47;99355.91;;;29.95;35.72
10310;BME280;5200;43.236;27.986;2023-06-10T07:15:14;99345.56;;;30.02;35.22
10310;BME280;5200;43.236;27.986;2023-06-10T07:17:42;99351.81;;;30.37;35.39
10310;BME280;5200;43.236;27.986;2023-06-10T07:20:15;99357.25;;;30.66;35.42
10310;BME280;5200;43.236;27.986;2023-06-10T07:22:43;99344.19;;;30.68;35.33
10310;BME280;5200;43.236;27.986;2023-06-10T07:25:12;99348.66;;;30.83;37.00
10310;BME280;5200;43.236;27.986;2023-06-10T07:27:39;99349.69;;;30.92;36.59
10310;BME280;5200;43.236;27.986;2023-06-10T07:30:07;99358.22;;;31.04;36.74
10310;BME280;5200;43.236;27.986;2023-06-10T07:32:34;99334.41;;;30.72;36.09
10310;BME280;5200;43.236;27.986;2023-06-10T07:35:08;99330.38;;;30.64;35.86
10310;BME280;5200;43.236;27.986;2023-06-10T07:37:35;99335.25;;;30.38;35.42
10310;BME280;5200;43.236;27.986;2023-06-10T07:40:03;99358.91;;;30.32;35.98
10310;BME280;5200;43.236;27.986;2023-06-10T07:42:35;99352.25;;;30.09;36.66
10310;BME280;5200;43.236;27.986;2023-06-10T07:45:02;99345.09;;;29.84;37.42
10310;BME280;5200;43.236;27.986;2023-06-10T07:47:29;99349.78;;;29.74;38.52
10310;BME280;5200;43.236;27.986;2023-06-10T07:49:56;99349.34;;;29.51;38.62
10310;BME280;5200;43.236;27.986;2023-06-10T07:52:24;99348.94;;;29.18;39.59
10310;BME280;5200;43.236;27.986;2023-06-10T07:54:52;99353.88;;;28.91;40.77
10310;BME280;5200;43.236;27.986;2023-06-10T07:57:19;99360.66;;;28.88;42.01
10310;BME280;5200;43.236;27.986;2023-06-10T07:59:48;99367.69;;;28.89;43.60
10310;BME280;5200;43.236;27.986;2023-06-10T08:02:15;99333.88;;;28.81;43.82
10310;BME280;5200;43.236;27.986;2023-06-10T08:04:42;99331.09;;;29.12;43.64
10310;BME280;5200;43.236;27.986;2023-06-10T08:07:09;99348.72;;;29.69;43.60
10310;BME280;5200;43.236;27.986;2023-06-10T08:09:36;99345.19;;;30.13;42.54
10310;BME280;5200;43.236;27.986;2023-06-10T08:12:03;99331.03;;;30.56;41.94
10310;BME280;5200;43.236;27.986;2023-06-10T08:14:31;99328.63;;;30.79;41.46
10310;BME280;5200;43.236;27.986;2023-06-10T08:16:59;99330.97;;;31.14;39.71
10310;BME280;5200;43.236;27.986;2023-06-10T08:19:26;99315.72;;;31.18;39.76
10310;BME280;5200;43.236;27.986;2023-06-10T08:21:53;99332.91;;;31.33;38.69
10310;BME280;5200;43.236;27.986;2023-06-10T08:24:20;99322.53;;;31.35;38.38
10310;BME280;5200;43.236;27.986;2023-06-10T08:26:47;99343.31;;;31.50;38.11
10310;BME280;5200;43.236;27.986;2023-06-10T08:29:17;99333.31;;;31.45;36.67
10310;BME280;5200;43.236;27.986;2023-06-10T08:31:44;99324.16;;;31.36;37.17
10310;BME280;5200;43.236;27.986;2023-06-10T08:34:12;99341.78;;;30.95;37.71
10310;BME280;5200;43.236;27.986;2023-06-10T08:36:39;99342.97;;;30.55;38.27
10310;BME280;5200;43.236;27.986;2023-06-10T08:39:06;99358.38;;;30.30;39.12
10310;BME280;5200;43.236;27.986;2023-06-10T08:41:35;99357.06;;;30.23;39.44
10310;BME280;5200;43.236;27.986;2023-06-10T08:44:07;99346.34;;;30.42;39.50
10310;BME280;5200;43.236;27.986;2023-06-10T08:46:36;99326.66;;;30.26;39.21
10310;BME280;5200;43.236;27.986;2023-06-10T08:49:06;99341.19;;;30.40;39.45
10310;BME280;5200;43.236;27.986;2023-06-10T08:51:39;99330.97;;;30.61;38.49
10310;BME280;5200;43.236;27.986;2023-06-10T08:54:13;99347.44;;;30.99;38.41
10310;BME280;5200;43.236;27.986;2023-06-10T08:56:43;99320.16;;;31.09;37.18
10310;BME280;5200;43.236;27.986;2023-06-10T08:59:12;99310.44;;;31.03;37.38
10310;BME280;5200;43.236;27.986;2023-06-10T09:01:39;99347.88;;;31.06;37.51
10310;BME280;5200;43.236;27.986;2023-06-10T09:04:06;99337.94;;;30.96;37.72
10310;BME280;5200;43.236;27.986;2023-06-10T09:06:33;99321.38;;;30.98;37.73
10310;BME280;5200;43.236;27.986;2023-06-10T09:09:05;99312.63;;;31.01;37.85
10310;BME280;5200;43.236;27.986;2023-06-10T09:11:33;99300.72;;;30.97;36.96
10310;BME280;5200;43.236;27.986;2023-06-10T09:14:00;99317.84;;;31.22;36.60
10310;BME280;5200;43.236;27.986;2023-06-10T09:16:30;99315.44;;;31.39;37.74
10310;BME280;5200;43.236;27.986;2023-06-10T09:18:57;99323.19;;;31.51;37.67
10310;BME280;5200;43.236;27.986;2023-06-10T09:21:24;99310.31;;;31.13;38.02
10310;BME280;5200;43.236;27.986;2023-06-10T09:23:52;99302.50;;;30.83;38.38
10310;BME280;5200;43.236;27.986;2023-06-10T09:26:20;99309.47;;;30.94;37.42
10310;BME280;5200;43.236;27.986;2023-06-10T09:28:48;99326.50;;;31.00;36.07
10310;BME280;5200;43.236;27.986;2023-06-10T09:31:19;99316.28;;;31.15;34.46
10310;BME280;5200;43.236;27.986;2023-06-10T09:33:47;99289.53;;;31.04;34.39
10310;BME280;5200;43.236;27.986;2023-06-10T09:36:22;99301.81;;;31.20;35.20
10310;BME280;5200;43.236;27.986;2023-06-10T09:38:51;99300.09;;;31.05;34.82
10310;BME280;5200;43.236;27.986;2023-06-10T09:41:19;99321.28;;;30.55;36.84
10310;BME280;5200;43.236;27.986;2023-06-10T09:43:47;99312.19;;;30.36;37.11
10310;BME280;5200;43.236;27.986;2023-06-10T09:46:15;99300.91;;;30.52;36.24
10310;BME280;5200;43.236;27.986;2023-06-10T09:48:43;99310.63;;;30.83;35.54
10310;BME280;5200;43.236;27.986;2023-06-10T09:51:11;99298.47;;;31.04;35.15
10310;BME280;5200;43.236;27.986;2023-06-10T09:53:38;99304.63;;;31.34;34.60
10310;BME280;5200;43.236;27.986;2023-06-10T09:56:06;99293.97;;;31.18;34.82
10310;BME280;5200;43.236;27.986;2023-06-10T09:58:38;99281.69;;;31.02;35.12
10310;BME280;5200;43.236;27.986;2023-06-10T10:01:09;99291.81;;;31.15;34.33
10310;BME280;5200;43.236;27.986;2023-06-10T10:03:44;99290.59;;;30.84;34.92
10310;BME280;5200;43.236;27.986;2023-06-10T10:06:15;99296.03;;;30.79;36.32
10310;BME280;5200;43.236;27.986;2023-06-10T10:08:42;99286.75;;;30.85;35.25
10310;BME280;5200;43.236;27.986;2023-06-10T10:11:10;99282.81;;;30.72;35.98
10310;BME280;5200;43.236;27.986;2023-06-10T10:13:38;99285.59;;;30.38;36.85
10310;BME280;5200;43.236;27.986;2023-06-10T10:16:11;99303.06;;;30.26;37.86
10310;BME280;5200;43.236;27.986;2023-06-10T10:18:39;99292.75;;;30.23;37.99
10310;BME280;5200;43.236;27.986;2023-06-10T10:21:12;99282.97;;;29.93;39.31
10310;BME280;5200;43.236;27.986;2023-06-10T10:23:49;99276.06;;;29.71;39.59
10310;BME280;5200;43.236;27.986;2023-06-10T10:26:21;99294.91;;;29.47;40.45
10310;BME280;5200;43.236;27.986;2023-06-10T10:28:56;99294.81;;;29.08;40.70
10310;BME280;5200;43.236;27.986;2023-06-10T10:31:26;99296.63;;;29.23;40.76
10310;BME280;5200;43.236;27.986;2023-06-10T10:33:57;99275.66;;;29.44;39.92
10310;BME280;5200;43.236;27.986;2023-06-10T10:36:25;99282.00;;;29.79;39.05
10310;BME280;5200;43.236;27.986;2023-06-10T10:38:52;99283.44;;;30.00;39.33
10310;BME280;5200;43.236;27.986;2023-06-10T10:41:20;99276.31;;;30.09;40.07
10310;BME280;5200;43.236;27.986;2023-06-10T10:43:51;99275.94;;;30.26;40.55
10310;BME280;5200;43.236;27.986;2023-06-10T10:46:19;99253.66;;;30.29;40.97
10310;BME280;5200;43.236;27.986;2023-06-10T10:48:52;99272.81;;;30.43;39.47
10310;BME280;5200;43.236;27.986;2023-06-10T10:51:20;99256.00;;;30.41;40.06
10310;BME280;5200;43.236;27.986;2023-06-10T10:54:10;99269.69;;;30.26;40.89
10310;BME280;5200;43.236;27.986;2023-06-10T10:56:38;99278.34;;;29.93;42.08
10310;BME280;5200;43.236;27.986;2023-06-10T10:59:07;99266.31;;;29.65;42.52
10310;BME280;5200;43.236;27.986;2023-06-10T11:01:41;99263.03;;;29.29;42.82
10310;BME280;5200;43.236;27.986;2023-06-10T11:04:11;99271.78;;;29.05;43.12
10310;BME280;5200;43.236;27.986;2023-06-10T11:06:38;99290.34;;;29.33;43.43
10310;BME280;5200;43.236;27.986;2023-06-10T11:09:26;99260.88;;;29.76;44.60
10310;BME280;5200;43.236;27.986;2023-06-10T11:11:56;99248.41;;;30.09;44.64
10310;BME280;5200;43.236;27.986;2023-06-10T11:14:28;99267.06;;;30.45;43.79
10310;BME280;5200;43.236;27.986;2023-06-10T11:16:57;99254.50;;;30.54;42.48
10310;BME280;5200;43.236;27.986;2023-06-10T11:19:34;99254.03;;;30.47;42.09
10310;BME280;5200;43.236;27.986;2023-06-10T11:22:02;99255.13;;;30.46;42.31
10310;BME280;5200;43.236;27.986;2023-06-10T11:24:29;99262.34;;;30.31;41.41
10310;BME280;5200;43.236;27.986;2023-06-10T11:27:14;99262.59;;;29.96;42.24
10310;BME280;5200;43.236;27.986;2023-06-10T11:29:57;99261.59;;;29.86;41.88
10310;BME280;5200;43.236;27.986;2023-06-10T11:32:29;99233.56;;;29.96;43.19
10310;BME280;5200;43.236;27.986;2023-06-10T11:34:57;99229.81;;;30.26;44.16
10310;BME280;5200;43.236;27.986;2023-06-10T11:37:24;99229.34;;;30.14;44.25
10310;BME280;5200;43.236;27.986;2023-06-10T11:39:54;99235.31;;;29.82;47.18
10310;BME280;5200;43.236;27.986;2023-06-10T11:42:22;99227.03;;;29.63;47.18
10310;BME280;5200;43.236;27.986;2023-06-10T11:44:49;99219.72;;;29.68;47.71
10310;BME280;5200;43.236;27.986;2023-06-10T11:47:20;99240.44;;;29.88;46.20
10310;BME280;5200;43.236;27.986;2023-06-10T11:49:55;99243.22;;;29.78;46.44
10310;BME280;5200;43.236;27.986;2023-06-10T11:52:26;99220.44;;;29.79;43.83
10310;BME280;5200;43.236;27.986;2023-06-10T11:54:54;99226.72;;;29.75;43.01
10310;BME280;5200;43.236;27.986;2023-06-10T11:57:21;99232.75;;;29.61;42.73
10310;BME280;5200;43.236;27.986;2023-06-10T11:59:48;99224.00;;;29.35;43.37
10310;BME280;5200;43.236;27.986;2023-06-10T12:02:21;99214.91;;;29.05;45.46
10310;BME280;5200;43.236;27.986;2023-06-10T12:04:48;99203.69;;;28.73;47.68
10310;BME280;5200;43.236;27.986;2023-06-10T12:07:18;99199.13;;;28.63;48.03
10310;BME280;5200;43.236;27.986;2023-06-10T12:09:58;99186.41;;;28.63;49.28
10310;BME280;5200;43.236;27.986;2023-06-10T12:12:26;99205.84;;;28.76;48.67
10310;BME280;5200;43.236;27.986;2023-06-10T12:14:54;99214.25;;;28.74;48.93
10310;BME280;5200;43.236;27.986;2023-06-10T12:17:24;99205.88;;;28.71;49.32
10310;BME280;5200;43.236;27.986;2023-06-10T12:20:04;99203.53;;;29.03;48.78
10310;BME280;5200;43.236;27.986;2023-06-10T12:22:36;99198.63;;;29.16;47.98
10310;BME280;5200;43.236;27.986;2023-06-10T12:25:05;99197.59;;;29.12;47.79
10310;BME280;5200;43.236;27.986;2023-06-10T12:27:33;99194.22;;;29.30;46.66
10310;BME280;5200;43.236;27.986;2023-06-10T12:30:01;99190.31;;;29.46;44.91
10310;BME280;5200;43.236;27.986;2023-06-10T12:32:38;99187.38;;;29.43;42.98
10310;BME280;5200;43.236;27.986;2023-06-10T12:35:12;99182.81;;;29.33;43.54
10310;BME280;5200;43.236;27.986;2023-06-10T12:37:41;99187.34;;;28.98;44.87
10310;BME280;5200;43.236;27.986;2023-06-10T12:40:09;99177.09;;;28.85;45.78
10310;BME280;5200;43.236;27.986;2023-06-10T12:42:36;99173.19;;;29.06;45.52
10310;BME280;5200;43.236;27.986;2023-06-10T12:45:04;99166.03;;;29.31;45.82
10310;BME280;5200;43.236;27.986;2023-06-10T12:47:34;99162.22;;;29.32;45.24
10310;BME280;5200;43.236;27.986;2023-06-10T12:50:05;99178.25;;;29.63;44.98
10310;BME280;5200;43.236;27.986;2023-06-10T12:52:32;99143.03;;;29.63;44.11
10310;BME280;5200;43.236;27.986;2023-06-10T12:54:59;99177.59;;;30.10;41.79
10310;BME280;5200;43.236;27.986;2023-06-10T12:57:26;99164.50;;;30.18;41.77
10310;BME280;5200;43.236;27.986;2023-06-10T12:59:53;99168.38;;;29.82;42.78
10310;BME280;5200;43.236;27.986;2023-06-10T13:02:26;99144.66;;;29.64;43.14
10310;BME280;5200;43.236;27.986;2023-06-10T13:04:53;99166.38;;;29.59;42.86
10310;BME280;5200;43.236;27.986;2023-06-10T13:07:21;99176.22;;;29.49;45.25
10310;BME280;5200;43.236;27.986;2023-06-10T13:09:49;99185.06;;;29.21;47.19
10310;BME280;5200;43.236;27.986;2023-06-10T13:12:15;99181.66;;;28.95;48.83
10310;BME280;5200;43.236;27.986;2023-06-10T13:14:43;99188.44;;;28.92;49.19